createdAt,value
2018-10-05T00:01:20.801Z,10.53
2018-10-05T00:03:55.329Z,9.50
2018-10-05T00:06:29.591Z,8.73
2018-10-05T00:09:07.830Z,9.73
2018-10-05T00:11:42.614Z,9.97
2018-10-05T00:14:20.106Z,9.17
2018-10-05T00:16:57.850Z,7.77
2018-10-05T00:19:32.353Z,9.43
2018-10-05T00:22:10.961Z,9.50
2018-10-05T00:24:45.647Z,9.27
2018-10-05T00:27:19.952Z,8.20
2018-10-05T00:29:55.273Z,8.50
2018-10-05T00:32:30.470Z,9.00
2018-10-05T00:35:05.077Z,9.40
2018-10-05T00:37:40.178Z,8.50
2018-10-05T00:40:14.773Z,8.70
2018-10-05T00:42:49.386Z,10.17
2018-10-05T00:45:23.889Z,10.50
2018-10-05T00:47:58.514Z,9.47
2018-10-05T00:50:32.985Z,8.90
2018-10-05T00:53:08.387Z,9.10
2018-10-05T00:55:42.533Z,8.70
2018-10-05T00:58:17.145Z,8.83
2018-10-05T01:00:51.721Z,9.70
2018-10-05T01:03:26.308Z,9.60
2018-10-05T01:06:00.888Z,9.80
2018-10-05T01:08:35.468Z,8.90
2018-10-05T01:11:10.178Z,9.70
2018-10-05T01:13:44.887Z,9.80
2018-10-05T01:16:19.429Z,10.20
2018-10-05T01:18:53.883Z,8.80
2018-10-05T01:21:29.405Z,11.23
2018-10-05T01:24:04.104Z,9.23
2018-10-05T01:26:38.785Z,9.70
2018-10-05T01:29:13.497Z,9.77
2018-10-05T01:31:48.197Z,10.43
2018-10-05T01:34:22.663Z,9.50
2018-10-05T01:36:57.130Z,9.67
2018-10-05T01:39:31.720Z,11.17
2018-10-05T01:42:06.267Z,10.40
2018-10-05T01:44:40.773Z,10.53
2018-10-05T01:47:15.342Z,10.90
2018-10-05T01:49:49.888Z,9.57
2018-10-05T01:52:24.401Z,11.27
2018-10-05T01:54:59.239Z,10.27
2018-10-05T01:57:33.414Z,10.80
2018-10-05T02:00:08.032Z,10.77
2018-10-05T02:02:42.763Z,9.53
2018-10-05T02:05:17.285Z,10.00
2018-10-05T02:07:51.985Z,10.13
2018-10-05T02:10:26.345Z,11.20
2018-10-05T02:13:01.197Z,9.50
2018-10-05T02:15:36.872Z,7.80
2018-10-05T02:18:12.073Z,8.80
2018-10-05T02:20:46.394Z,8.27
2018-10-05T02:23:20.969Z,8.50
2018-10-05T02:25:55.875Z,9.83
2018-10-05T02:28:30.128Z,7.70
2018-10-05T02:31:04.780Z,6.73
2018-10-05T02:33:39.179Z,7.57
2018-10-05T02:36:14.027Z,8.77
2018-10-05T02:38:48.443Z,6.70
2018-10-05T02:41:23.037Z,7.60
2018-10-05T02:43:57.497Z,8.00
2018-10-05T02:46:31.846Z,8.27
2018-10-05T02:49:06.521Z,7.00
2018-10-05T02:51:40.925Z,7.30
2018-10-05T02:54:15.578Z,9.00
2018-10-05T02:56:49.974Z,7.83
2018-10-05T02:59:24.490Z,7.50
2018-10-05T03:02:16.082Z,6.83
2018-10-05T03:04:50.585Z,7.40
2018-10-05T03:07:26.085Z,7.23
2018-10-05T03:10:01.422Z,7.67
2018-10-05T03:12:36.074Z,7.73
2018-10-05T03:15:10.745Z,9.07
2018-10-05T03:17:45.190Z,7.93
2018-10-05T03:20:19.855Z,7.43
2018-10-05T03:22:54.729Z,7.80
2018-10-05T03:25:28.861Z,7.40
2018-10-05T03:28:03.424Z,8.77
2018-10-05T03:30:37.882Z,7.57
2018-10-05T03:33:12.556Z,7.60
2018-10-05T03:35:47.181Z,6.57
2018-10-05T03:38:21.778Z,7.70
2018-10-05T03:40:56.526Z,8.40
2018-10-05T03:43:30.769Z,7.03
2018-10-05T03:46:05.537Z,8.03
2018-10-05T03:48:39.877Z,7.07
2018-10-05T03:51:14.395Z,7.37
2018-10-05T03:53:48.985Z,6.87
2018-10-05T03:56:23.508Z,6.97
2018-10-05T03:58:57.950Z,6.80
2018-10-05T04:01:33.347Z,7.27
2018-10-05T04:04:08.173Z,7.40
2018-10-05T04:06:42.964Z,8.00
2018-10-05T04:09:17.194Z,6.63
2018-10-05T04:11:51.796Z,7.80
2018-10-05T04:14:26.502Z,7.40
2018-10-05T04:17:01.270Z,7.37
2018-10-05T04:19:35.794Z,7.50
2018-10-05T04:22:10.609Z,8.50
2018-10-05T04:24:44.934Z,7.53
2018-10-05T04:27:19.629Z,7.30
2018-10-05T04:29:54.711Z,7.93
2018-10-05T04:32:29.655Z,7.87
2018-10-05T04:35:04.259Z,9.17
2018-10-05T04:37:38.717Z,7.93
2018-10-05T04:40:13.486Z,8.63
2018-10-05T04:42:48.382Z,9.03
2018-10-05T04:45:22.741Z,8.97
2018-10-05T04:47:57.469Z,9.27
2018-10-05T04:50:31.660Z,8.70
2018-10-05T04:53:06.319Z,8.07
2018-10-05T04:55:40.825Z,10.47
2018-10-05T04:58:15.634Z,9.37
2018-10-05T05:00:50.285Z,9.30
2018-10-05T05:03:25.253Z,8.57
2018-10-05T05:05:59.500Z,9.13
2018-10-05T05:08:34.407Z,7.90
2018-10-05T05:11:08.497Z,9.63
2018-10-05T05:13:42.968Z,8.30
2018-10-05T05:16:17.525Z,9.90
2018-10-05T05:18:52.177Z,8.40
2018-10-05T05:21:26.787Z,9.30
2018-10-05T05:24:01.506Z,7.70
2018-10-05T05:26:36.153Z,8.93
2018-10-05T05:29:10.949Z,8.17
2018-10-05T05:31:45.296Z,8.17
2018-10-05T05:34:20.135Z,8.97
2018-10-05T05:36:54.501Z,8.80
2018-10-05T05:39:29.090Z,9.20
2018-10-05T05:42:03.731Z,8.57
2018-10-05T05:44:38.177Z,8.90
2018-10-05T05:47:12.733Z,8.53
2018-10-05T05:49:47.667Z,7.97
2018-10-05T05:52:21.805Z,8.10
2018-10-05T05:54:56.365Z,8.30
2018-10-05T05:57:31.048Z,9.57
2018-10-05T06:00:05.904Z,8.60
2018-10-05T06:02:40.790Z,7.27
2018-10-05T06:05:15.685Z,9.10
2018-10-05T06:07:50.438Z,7.93
2018-10-05T06:10:25.540Z,7.30
2018-10-05T06:13:00.472Z,8.00
2018-10-05T06:15:36.229Z,8.63
2018-10-05T06:18:11.797Z,7.10
2018-10-05T06:20:46.357Z,8.00
2018-10-05T06:23:21.974Z,6.73
2018-10-05T06:25:56.736Z,7.60
2018-10-05T06:28:31.261Z,6.27
2018-10-05T06:31:06.745Z,6.53
2018-10-05T06:33:42.353Z,7.37
2018-10-05T06:36:16.906Z,6.23
2018-10-05T06:38:51.501Z,5.73
2018-10-05T06:41:26.809Z,6.30
2018-10-05T06:44:02.088Z,6.60
2018-10-05T06:46:36.313Z,5.00
2018-10-05T06:49:10.700Z,5.00
2018-10-05T06:51:45.362Z,4.97
2018-10-05T06:54:20.330Z,5.27
2018-10-05T06:56:55.454Z,5.37
2018-10-05T06:59:30.049Z,4.40
2018-10-05T07:02:04.524Z,4.90
2018-10-05T07:04:39.154Z,4.60
2018-10-05T07:07:13.892Z,4.10
2018-10-05T07:09:49.066Z,4.67
2018-10-05T07:12:24.145Z,4.20
2018-10-05T07:14:58.849Z,3.80
2018-10-05T07:17:33.446Z,3.90
2018-10-05T07:20:08.094Z,4.50
2018-10-05T07:22:42.567Z,4.77
2018-10-05T07:25:17.013Z,3.80
2018-10-05T07:27:51.802Z,3.60
2018-10-05T07:30:26.226Z,3.90
2018-10-05T07:33:00.820Z,3.90
2018-10-05T07:35:35.378Z,3.17
2018-10-05T07:38:10.157Z,3.40
2018-10-05T07:40:44.344Z,3.30
2018-10-05T07:43:19.228Z,3.57
2018-10-05T07:45:53.470Z,3.83
2018-10-05T07:48:27.852Z,4.00
2018-10-05T07:51:02.517Z,3.60
2018-10-05T07:53:37.059Z,2.73
2018-10-05T07:56:20.948Z,3.30
2018-10-05T07:58:55.121Z,3.13
2018-10-05T08:01:29.597Z,3.03
2018-10-05T08:04:04.159Z,3.20
2018-10-05T08:06:38.704Z,3.70
2018-10-05T08:09:13.300Z,3.20
2018-10-05T08:11:47.878Z,3.10
2018-10-05T08:14:22.676Z,3.27
2018-10-05T08:16:59.711Z,3.67
2018-10-05T08:19:34.590Z,4.00
2018-10-05T08:22:09.518Z,3.33
2018-10-05T08:24:43.883Z,3.77
2018-10-05T08:27:18.373Z,3.63
2018-10-05T08:29:52.973Z,2.77
2018-10-05T08:32:27.413Z,5.00
2018-10-05T08:35:02.224Z,4.20
2018-10-05T08:37:37.433Z,3.50
2018-10-05T08:40:16.873Z,3.67
2018-10-05T08:42:51.862Z,3.10
2018-10-05T08:45:26.553Z,3.40
2018-10-05T08:48:01.071Z,3.23
2018-10-05T08:50:35.553Z,3.40
2018-10-05T08:53:09.945Z,3.60
2018-10-05T08:55:44.499Z,3.73
2018-10-05T08:58:19.618Z,2.90
2018-10-05T09:00:53.848Z,3.87
2018-10-05T09:03:28.294Z,4.20
2018-10-05T09:06:02.690Z,4.07
2018-10-05T09:08:37.351Z,3.70
2018-10-05T09:11:12.043Z,3.40
2018-10-05T09:13:47.215Z,3.10
2018-10-05T09:16:22.002Z,3.27
2018-10-05T09:18:57.151Z,2.90
2018-10-05T09:21:32.924Z,3.63
2018-10-05T09:24:07.639Z,4.27
2018-10-05T09:26:42.204Z,3.30
2018-10-05T09:29:16.883Z,3.57
2018-10-05T09:31:51.585Z,3.40
2018-10-05T09:34:26.402Z,3.57
2018-10-05T09:37:00.821Z,3.60
2018-10-05T09:39:35.636Z,3.17
2018-10-05T09:42:10.176Z,2.93
2018-10-05T09:44:44.844Z,3.17
2018-10-05T09:47:19.253Z,2.30
2018-10-05T09:49:54.232Z,2.83
2018-10-05T09:52:28.850Z,2.37
2018-10-05T09:55:03.267Z,2.27
2018-10-05T09:57:37.886Z,2.80
2018-10-05T10:00:18.109Z,2.30
2018-10-05T10:02:59.045Z,2.47
2018-10-05T10:05:33.881Z,2.47
2018-10-05T10:08:09.102Z,2.40
2018-10-05T10:10:43.342Z,3.00
2018-10-05T10:13:17.825Z,3.20
2018-10-05T10:15:52.731Z,5.10
2018-10-05T10:18:27.211Z,4.40
2018-10-05T10:21:01.628Z,4.70
2018-10-05T10:23:36.220Z,4.50
2018-10-05T10:26:10.770Z,4.50
2018-10-05T10:28:45.444Z,4.30
2018-10-05T10:31:20.582Z,4.80
2018-10-05T10:33:55.694Z,4.90
2018-10-05T10:36:30.241Z,5.40
2018-10-05T10:39:07.213Z,4.77
2018-10-05T10:41:41.694Z,3.60
2018-10-05T10:44:16.177Z,3.77
2018-10-05T10:46:50.695Z,3.93
2018-10-05T10:49:25.258Z,3.87
2018-10-05T10:52:00.013Z,4.03
2018-10-05T10:54:34.399Z,3.13
2018-10-05T10:57:08.928Z,3.33
2018-10-05T10:59:43.451Z,4.03
2018-10-05T11:02:17.997Z,3.77
2018-10-05T11:04:52.616Z,3.77
2018-10-05T11:07:27.041Z,4.67
2018-10-05T11:10:01.637Z,3.87
2018-10-05T11:12:36.420Z,3.23
2018-10-05T11:15:10.840Z,3.07
2018-10-05T11:17:45.443Z,3.80
2018-10-05T11:20:20.176Z,3.53
2018-10-05T11:22:54.746Z,3.50
2018-10-05T11:25:29.227Z,4.40
2018-10-05T11:28:03.741Z,3.77
2018-10-05T11:30:38.207Z,4.40
2018-10-05T11:33:12.641Z,5.33
2018-10-05T11:35:47.243Z,4.50
2018-10-05T11:38:21.945Z,3.10
2018-10-05T11:40:56.467Z,4.23
2018-10-05T11:43:31.630Z,3.00
2018-10-05T11:46:06.210Z,3.03
2018-10-05T11:48:40.393Z,3.60
2018-10-05T11:51:15.283Z,3.50
2018-10-05T11:53:49.562Z,3.20
2018-10-05T11:56:24.169Z,3.43
2018-10-05T11:58:59.129Z,3.07
2018-10-05T12:01:33.534Z,3.63
2018-10-05T12:04:08.223Z,4.00
2018-10-05T12:06:42.535Z,3.03
2018-10-05T12:09:17.087Z,2.90
2018-10-05T12:11:51.668Z,2.73
2018-10-05T12:14:26.262Z,3.37
2018-10-05T12:17:01.027Z,2.90
2018-10-05T12:19:35.379Z,3.20
2018-10-05T12:22:10.720Z,3.10
2018-10-05T12:24:45.623Z,3.17
2018-10-05T12:27:20.263Z,2.83
2018-10-05T12:29:54.838Z,3.37
2018-10-05T12:32:29.462Z,3.27
2018-10-05T12:35:04.116Z,2.50
2018-10-05T12:37:38.662Z,3.43
2018-10-05T12:40:13.317Z,2.47
2018-10-05T12:42:47.824Z,4.20
2018-10-05T12:45:23.587Z,3.57
2018-10-05T12:47:58.239Z,2.50
2018-10-05T12:50:32.695Z,2.60
2018-10-05T12:53:07.318Z,2.37
2018-10-05T12:55:42.158Z,2.40
2018-10-05T12:58:16.662Z,2.57
2018-10-05T13:00:51.027Z,2.57
2018-10-05T13:03:25.938Z,2.57
2018-10-05T13:06:00.802Z,2.50
2018-10-05T13:08:35.785Z,2.63
2018-10-05T13:11:10.727Z,2.80
2018-10-05T13:13:45.323Z,1.83
2018-10-05T13:16:20.083Z,2.30
2018-10-05T13:18:54.880Z,2.73
2018-10-05T13:21:29.551Z,2.53
2018-10-05T13:24:04.708Z,2.40
2018-10-05T13:26:39.849Z,2.43
2018-10-05T13:29:14.321Z,2.70
2018-10-05T13:31:49.066Z,2.37
2018-10-05T13:34:23.590Z,2.30
2018-10-05T13:36:58.177Z,2.37
2018-10-05T13:39:32.631Z,2.20
2018-10-05T13:42:07.336Z,2.60
2018-10-05T13:44:41.698Z,3.20
2018-10-05T13:47:16.268Z,2.83
2018-10-05T13:49:50.800Z,2.27
2018-10-05T13:52:25.410Z,2.60
2018-10-05T13:55:00.313Z,2.23
2018-10-05T13:57:34.744Z,2.27
2018-10-05T14:00:09.423Z,2.70
2018-10-05T14:02:44.120Z,2.40
2018-10-05T14:05:18.910Z,2.17
2018-10-05T14:07:53.547Z,1.90
2018-10-05T14:10:28.188Z,2.87
2018-10-05T14:13:02.981Z,2.27
2018-10-05T14:15:37.528Z,2.50
2018-10-05T14:18:12.665Z,2.50
2018-10-05T14:20:47.333Z,2.50
2018-10-05T14:23:22.110Z,2.20
2018-10-05T14:25:56.602Z,2.20
2018-10-05T14:28:31.239Z,2.83
2018-10-05T14:31:05.966Z,2.20
2018-10-05T14:33:40.808Z,2.40
2018-10-05T14:36:15.126Z,2.50
2018-10-05T14:38:50.857Z,2.37
2018-10-05T14:41:25.376Z,2.60
2018-10-05T14:44:00.042Z,2.73
2018-10-05T14:46:34.834Z,2.13
2018-10-05T14:49:09.614Z,2.60
2018-10-05T14:51:44.296Z,3.80
2018-10-05T14:54:18.913Z,3.60
2018-10-05T14:56:53.483Z,2.37
2018-10-05T14:59:28.172Z,2.90
2018-10-05T15:02:02.774Z,2.17
2018-10-05T15:04:37.624Z,2.70
2018-10-05T15:07:11.981Z,2.53
2018-10-05T15:09:46.780Z,3.20
2018-10-05T15:12:21.475Z,1.90
2018-10-05T15:14:55.846Z,2.40
2018-10-05T15:17:30.745Z,2.00
2018-10-05T15:20:05.495Z,2.33
2018-10-05T15:22:39.912Z,2.67
2018-10-05T15:25:14.681Z,2.97
2018-10-05T15:27:49.453Z,2.87
2018-10-05T15:30:24.242Z,2.40
2018-10-05T15:32:58.389Z,2.60
2018-10-05T15:35:33.168Z,2.37
2018-10-05T15:38:07.847Z,3.30
2018-10-05T15:40:42.766Z,2.57
2018-10-05T15:43:17.417Z,3.03
2018-10-05T15:46:03.251Z,2.77
2018-10-05T15:48:38.408Z,3.03
2018-10-05T15:51:12.922Z,3.60
2018-10-05T15:53:47.499Z,2.90
2018-10-05T15:56:23.511Z,3.00
2018-10-05T15:58:57.821Z,2.77
2018-10-05T16:01:32.412Z,3.20
2018-10-05T16:04:08.198Z,2.80
2018-10-05T16:06:42.569Z,3.50
2018-10-05T16:09:18.061Z,3.93
2018-10-05T16:11:53.125Z,3.00
2018-10-05T16:14:27.750Z,4.60
2018-10-05T16:17:02.497Z,3.60
2018-10-05T16:19:37.017Z,4.03
2018-10-05T16:22:11.853Z,3.40
2018-10-05T16:24:46.521Z,3.27
2018-10-05T16:27:20.998Z,3.27
2018-10-05T16:29:55.869Z,3.50
2018-10-05T16:32:30.436Z,3.10
2018-10-05T16:35:07.640Z,2.70
2018-10-05T16:37:42.010Z,3.20
2018-10-05T16:40:17.401Z,3.40
2018-10-05T16:42:51.585Z,3.10
2018-10-05T16:45:26.425Z,3.57
2018-10-05T16:48:00.793Z,3.20
2018-10-05T16:50:35.581Z,3.30
2018-10-05T16:53:10.213Z,2.93
2018-10-05T16:55:44.692Z,3.20
2018-10-05T16:58:19.312Z,3.00
2018-10-05T17:00:53.543Z,2.87
2018-10-05T17:03:28.116Z,3.40
2018-10-05T17:06:02.813Z,4.20
2018-10-05T17:08:40.509Z,4.60
2018-10-05T17:11:15.318Z,4.03
2018-10-05T17:13:49.839Z,4.20
2018-10-05T17:16:24.534Z,4.00
2018-10-05T17:19:01.311Z,4.20
2018-10-05T17:21:35.993Z,4.03
2018-10-05T17:26:48.380Z,3.40
2018-10-05T17:29:22.877Z,3.50
2018-10-05T17:34:36.747Z,4.00
2018-10-05T17:37:11.869Z,3.83
2018-10-05T17:39:46.309Z,3.33
2018-10-05T17:42:20.700Z,4.17
2018-10-05T17:44:56.105Z,3.90
2018-10-05T17:47:31.090Z,3.80
2018-10-05T17:50:05.717Z,4.37
2018-10-05T17:52:40.065Z,4.43
2018-10-05T17:55:14.795Z,4.30
2018-10-05T17:57:49.333Z,5.80
2018-10-05T18:00:23.802Z,8.83
2018-10-05T18:02:58.844Z,6.20
2018-10-05T18:05:33.952Z,6.40
2018-10-05T18:08:08.725Z,6.47
2018-10-05T18:10:43.070Z,6.13
2018-10-05T18:13:17.901Z,5.67
2018-10-05T18:15:52.930Z,5.33
2018-10-05T18:18:27.819Z,5.90
2018-10-05T18:21:02.414Z,5.87
2018-10-05T18:23:37.041Z,5.50
2018-10-05T18:26:11.594Z,5.03
2018-10-05T18:28:46.090Z,7.57
2018-10-05T18:31:20.696Z,6.77
2018-10-05T18:33:55.441Z,8.83
2018-10-05T18:36:31.053Z,8.37
2018-10-05T18:39:08.488Z,8.60
2018-10-05T18:41:42.973Z,7.97
2018-10-05T18:44:17.462Z,7.67
2018-10-05T18:46:51.972Z,7.10
2018-10-05T18:49:26.560Z,6.40
2018-10-05T18:52:01.031Z,7.43
2018-10-05T18:54:35.593Z,6.70
2018-10-05T18:57:18.560Z,7.20
2018-10-05T18:59:52.891Z,6.40
2018-10-05T19:02:27.473Z,7.27
2018-10-05T19:05:02.645Z,6.57
2018-10-05T19:07:37.670Z,6.57
2018-10-05T19:10:12.333Z,6.50
2018-10-05T19:12:46.966Z,7.43
2018-10-05T19:15:21.602Z,8.63
2018-10-05T19:17:56.041Z,8.13
2018-10-05T19:20:30.467Z,7.70
2018-10-05T19:23:05.362Z,7.77
2018-10-05T19:25:39.767Z,8.00
2018-10-05T19:28:14.674Z,6.90
2018-10-05T19:30:50.523Z,7.30
2018-10-05T19:33:25.476Z,8.37
2018-10-05T19:35:59.825Z,7.00
2018-10-05T19:38:34.329Z,9.47
2018-10-05T19:41:09.059Z,8.17
2018-10-05T19:43:43.561Z,7.00
2018-10-05T19:46:18.220Z,8.60
2018-10-05T19:48:52.847Z,9.40
2018-10-05T19:51:29.098Z,10.03
2018-10-05T19:54:04.243Z,9.07
2018-10-05T19:56:39.211Z,8.83
2018-10-05T19:59:13.788Z,8.20
2018-10-05T20:01:48.223Z,8.80
2018-10-05T20:04:22.691Z,8.67
2018-10-05T20:06:57.733Z,9.17
2018-10-05T20:09:32.898Z,9.50
2018-10-05T20:12:07.653Z,9.70
2018-10-05T20:14:42.268Z,9.10
2018-10-05T20:17:16.919Z,8.70
2018-10-05T20:19:51.750Z,9.60
2018-10-05T20:22:26.025Z,10.87
2018-10-05T20:25:00.562Z,10.17
2018-10-05T20:27:35.233Z,11.57
2018-10-05T20:30:09.932Z,9.80
2018-10-05T20:32:45.237Z,9.70
2018-10-05T20:35:20.293Z,10.13
2018-10-05T20:37:54.640Z,10.00
2018-10-05T20:40:29.045Z,10.03
2018-10-05T20:43:04.874Z,10.80
2018-10-05T20:45:39.355Z,9.63
2018-10-05T20:48:13.918Z,10.00
2018-10-05T20:50:48.514Z,10.03
2018-10-05T20:53:23.087Z,10.10
2018-10-05T20:55:57.601Z,11.00
2018-10-05T20:58:32.310Z,9.27
2018-10-05T21:01:06.679Z,9.07
2018-10-05T21:03:41.682Z,10.07
2018-10-05T21:06:17.848Z,8.83
2018-10-05T21:08:52.448Z,9.10
2018-10-05T21:11:26.805Z,8.23
2018-10-05T21:14:01.306Z,8.47
2018-10-05T21:16:35.985Z,9.83
2018-10-05T21:19:11.256Z,9.20
2018-10-05T21:21:46.283Z,9.40
2018-10-05T21:24:21.018Z,9.20
2018-10-05T21:26:55.614Z,9.57
2018-10-05T21:29:30.245Z,8.47
2018-10-05T21:32:04.883Z,9.87
2018-10-05T21:34:39.489Z,10.27
2018-10-05T21:37:14.629Z,9.33
2018-10-05T21:39:48.818Z,9.47
2018-10-05T21:42:23.213Z,9.77
2018-10-05T21:44:58.233Z,8.77
2018-10-05T21:47:32.730Z,10.93
2018-10-05T21:50:07.962Z,8.00
2018-10-05T21:52:42.349Z,7.70
2018-10-05T21:55:17.102Z,8.40
2018-10-05T21:57:51.608Z,8.40
2018-10-05T22:00:31.836Z,9.60
2018-10-05T22:03:06.805Z,9.50
2018-10-05T22:05:41.510Z,7.97
2018-10-05T22:08:15.870Z,7.80
2018-10-05T22:10:50.645Z,6.97
2018-10-05T22:13:25.007Z,7.93
2018-10-05T22:15:59.781Z,9.00
2018-10-05T22:18:34.207Z,6.63
2018-10-05T22:21:09.538Z,7.63
2018-10-05T22:23:43.707Z,7.90
2018-10-05T22:26:18.566Z,7.63
2018-10-05T22:28:52.752Z,7.30
2018-10-05T22:31:27.547Z,7.30
2018-10-05T22:34:02.157Z,6.60
2018-10-05T22:36:36.743Z,7.27
2018-10-05T22:39:11.563Z,7.80
2018-10-05T22:41:46.181Z,7.67
2018-10-05T22:44:20.660Z,6.23
2018-10-05T22:46:55.652Z,8.30
2018-10-05T22:49:29.868Z,8.07
2018-10-05T22:52:04.691Z,7.40
2018-10-05T22:54:38.998Z,7.30
2018-10-05T22:57:13.449Z,7.47
2018-10-05T22:59:47.984Z,8.03
2018-10-05T23:02:22.395Z,8.10
2018-10-05T23:04:56.923Z,8.00
2018-10-05T23:07:31.603Z,6.53
2018-10-05T23:10:06.701Z,7.40
2018-10-05T23:12:41.597Z,6.90
2018-10-05T23:15:16.134Z,6.83
2018-10-05T23:17:50.778Z,7.30
2018-10-05T23:20:25.345Z,8.40
2018-10-05T23:22:59.929Z,6.77
2018-10-05T23:25:34.558Z,7.00
2018-10-05T23:28:09.236Z,6.77
2018-10-05T23:30:43.719Z,5.87
2018-10-05T23:33:18.276Z,7.57
2018-10-05T23:35:52.854Z,6.47
2018-10-05T23:38:27.617Z,5.90
2018-10-05T23:41:02.275Z,6.00
2018-10-05T23:43:36.772Z,6.17
2018-10-05T23:46:11.387Z,6.87
2018-10-05T23:48:46.098Z,6.00
2018-10-05T23:51:20.850Z,5.60
2018-10-05T23:53:55.310Z,6.10
2018-10-05T23:56:30.161Z,6.37
2018-10-05T23:59:04.477Z,6.23
